sensor_id;sensor_type;location;lat;lon;timestamp;P1;durP1;ratioP1;P2;durP2;ratioP2
11531;SDS011;5822;51.000;5.874;2023-04-03T00:01:13;18.95;;;17.75;;
11531;SDS011;5822;51.000;5.874;2023-04-03T00:03:40;19.58;;;18.38;;
11531;SDS011;5822;51.000;5.874;2023-04-03T00:06:09;19.15;;;17.95;;
11531;SDS011;5822;51.000;5.874;2023-04-03T00:08:36;19.08;;;17.88;;
11531;SDS011;5822;51.000;5.874;2023-04-03T00:11:03;19.70;;;18.50;;
11531;SDS011;5822;51.000;5.874;2023-04-03T00:13:29;19.40;;;18.20;;
11531;SDS011;5822;51.000;5.874;2023-04-03T00:15:57;19.38;;;18.17;;
11531;SDS011;5822;51.000;5.874;2023-04-03T00:18:23;18.67;;;17.57;;
11531;SDS011;5822;51.000;5.874;2023-04-03T00:20:49;18.77;;;17.63;;
11531;SDS011;5822;51.000;5.874;2023-04-03T00:23:15;18.92;;;17.73;;
11531;SDS011;5822;51.000;5.874;2023-04-03T00:25:41;18.70;;;17.60;;
11531;SDS011;5822;51.000;5.874;2023-04-03T00:28:07;19.17;;;17.98;;
11531;SDS011;5822;51.000;5.874;2023-04-03T00:30:33;19.00;;;17.80;;
11531;SDS011;5822;51.000;5.874;2023-04-03T00:32:59;19.23;;;18.02;;
11531;SDS011;5822;51.000;5.874;2023-04-03T00:35:26;19.37;;;18.17;;
11531;SDS011;5822;51.000;5.874;2023-04-03T00:37:52;18.95;;;17.80;;
11531;SDS011;5822;51.000;5.874;2023-04-03T00:40:19;18.58;;;17.48;;
11531;SDS011;5822;51.000;5.874;2023-04-03T00:42:48;18.70;;;17.60;;
11531;SDS011;5822;51.000;5.874;2023-04-03T00:45:23;18.30;;;17.10;;
11531;SDS011;5822;51.000;5.874;2023-04-03T00:47:55;18.05;;;16.95;;
11531;SDS011;5822;51.000;5.874;2023-04-03T00:50:24;18.42;;;17.33;;
11531;SDS011;5822;51.000;5.874;2023-04-03T00:52:50;18.50;;;17.40;;
11531;SDS011;5822;51.000;5.874;2023-04-03T00:55:16;18.63;;;17.50;;
11531;SDS011;5822;51.000;5.874;2023-04-03T00:57:42;18.90;;;17.70;;
11531;SDS011;5822;51.000;5.874;2023-04-03T01:00:11;19.30;;;18.05;;
11531;SDS011;5822;51.000;5.874;2023-04-03T01:02:41;19.00;;;17.80;;
11531;SDS011;5822;51.000;5.874;2023-04-03T01:05:06;18.77;;;17.67;;
11531;SDS011;5822;51.000;5.874;2023-04-03T01:07:32;19.30;;;17.90;;
11531;SDS011;5822;51.000;5.874;2023-04-03T01:10:00;18.40;;;17.30;;
11531;SDS011;5822;51.000;5.874;2023-04-03T01:12:30;18.42;;;17.33;;
11531;SDS011;5822;51.000;5.874;2023-04-03T01:14:59;18.77;;;17.67;;
11531;SDS011;5822;51.000;5.874;2023-04-03T01:17:34;18.45;;;17.35;;
11531;SDS011;5822;51.000;5.874;2023-04-03T01:25:45;19.02;;;17.90;;
11531;SDS011;5822;51.000;5.874;2023-04-03T01:28:18;18.58;;;17.48;;
11531;SDS011;5822;51.000;5.874;2023-04-03T01:30:51;18.80;;;17.70;;
11531;SDS011;5822;51.000;5.874;2023-04-03T01:33:24;18.45;;;17.35;;
11531;SDS011;5822;51.000;5.874;2023-04-03T01:35:50;18.30;;;17.20;;
11531;SDS011;5822;51.000;5.874;2023-04-03T01:38:16;18.80;;;17.70;;
11531;SDS011;5822;51.000;5.874;2023-04-03T01:40:41;19.37;;;18.17;;
11531;SDS011;5822;51.000;5.874;2023-04-03T01:43:07;19.30;;;18.10;;
11531;SDS011;5822;51.000;5.874;2023-04-03T01:45:33;18.98;;;17.80;;
11531;SDS011;5822;51.000;5.874;2023-04-03T01:47:59;18.90;;;17.70;;
11531;SDS011;5822;51.000;5.874;2023-04-03T01:50:24;18.77;;;17.57;;
11531;SDS011;5822;51.000;5.874;2023-04-03T01:52:50;18.73;;;17.63;;
11531;SDS011;5822;51.000;5.874;2023-04-03T01:55:16;18.57;;;17.47;;
11531;SDS011;5822;51.000;5.874;2023-04-03T01:57:41;18.65;;;17.55;;
11531;SDS011;5822;51.000;5.874;2023-04-03T02:00:07;19.13;;;17.92;;
11531;SDS011;5822;51.000;5.874;2023-04-03T02:02:34;19.38;;;18.17;;
11531;SDS011;5822;51.000;5.874;2023-04-03T02:05:00;19.37;;;18.17;;
11531;SDS011;5822;51.000;5.874;2023-04-03T02:07:25;19.20;;;18.10;;
11531;SDS011;5822;51.000;5.874;2023-04-03T02:09:51;19.13;;;17.92;;
11531;SDS011;5822;51.000;5.874;2023-04-03T02:12:17;19.30;;;18.10;;
11531;SDS011;5822;51.000;5.874;2023-04-03T02:14:42;18.73;;;17.55;;
11531;SDS011;5822;51.000;5.874;2023-04-03T02:17:08;18.98;;;17.77;;
11531;SDS011;5822;51.000;5.874;2023-04-03T02:19:34;19.00;;;17.90;;
11531;SDS011;5822;51.000;5.874;2023-04-03T02:22:01;19.20;;;18.00;;
11531;SDS011;5822;51.000;5.874;2023-04-03T02:24:30;18.92;;;17.83;;
11531;SDS011;5822;51.000;5.874;2023-04-03T02:26:57;19.45;;;18.25;;
11531;SDS011;5822;51.000;5.874;2023-04-03T02:29:22;19.10;;;18.00;;
11531;SDS011;5822;51.000;5.874;2023-04-03T02:31:48;19.20;;;18.00;;
11531;SDS011;5822;51.000;5.874;2023-04-03T02:34:14;19.40;;;18.20;;
11531;SDS011;5822;51.000;5.874;2023-04-03T02:36:40;19.58;;;18.38;;
11531;SDS011;5822;51.000;5.874;2023-04-03T02:39:06;18.92;;;17.83;;
11531;SDS011;5822;51.000;5.874;2023-04-03T02:41:32;19.33;;;18.23;;
11531;SDS011;5822;51.000;5.874;2023-04-03T02:44:01;18.70;;;17.55;;
11531;SDS011;5822;51.000;5.874;2023-04-03T02:46:27;18.92;;;17.73;;
11531;SDS011;5822;51.000;5.874;2023-04-03T02:48:56;19.30;;;18.10;;
11531;SDS011;5822;51.000;5.874;2023-04-03T02:51:22;19.88;;;18.60;;
11531;SDS011;5822;51.000;5.874;2023-04-03T02:53:50;19.65;;;18.45;;
11531;SDS011;5822;51.000;5.874;2023-04-03T02:56:16;19.55;;;18.35;;
11531;SDS011;5822;51.000;5.874;2023-04-03T02:58:43;19.90;;;18.70;;
11531;SDS011;5822;51.000;5.874;2023-04-03T03:01:09;19.70;;;18.50;;
11531;SDS011;5822;51.000;5.874;2023-04-03T03:03:35;19.30;;;18.10;;
11531;SDS011;5822;51.000;5.874;2023-04-03T03:06:11;19.17;;;17.98;;
11531;SDS011;5822;51.000;5.874;2023-04-03T03:08:39;19.30;;;18.10;;
11531;SDS011;5822;51.000;5.874;2023-04-03T03:11:05;18.85;;;17.75;;
11531;SDS011;5822;51.000;5.874;2023-04-03T03:13:31;19.02;;;17.90;;
11531;SDS011;5822;51.000;5.874;2023-04-03T03:15:57;19.67;;;18.48;;
11531;SDS011;5822;51.000;5.874;2023-04-03T03:18:23;19.27;;;18.10;;
11531;SDS011;5822;51.000;5.874;2023-04-03T03:20:52;19.20;;;18.02;;
11531;SDS011;5822;51.000;5.874;2023-04-03T03:23:18;19.53;;;18.33;;
11531;SDS011;5822;51.000;5.874;2023-04-03T03:25:44;19.08;;;17.92;;
11531;SDS011;5822;51.000;5.874;2023-04-03T03:28:10;18.27;;;17.17;;
11531;SDS011;5822;51.000;5.874;2023-04-03T03:30:36;18.90;;;17.80;;
11531;SDS011;5822;51.000;5.874;2023-04-03T03:33:02;19.20;;;18.00;;
11531;SDS011;5822;51.000;5.874;2023-04-03T03:35:28;19.10;;;18.00;;
11531;SDS011;5822;51.000;5.874;2023-04-03T03:37:53;19.10;;;17.97;;
11531;SDS011;5822;51.000;5.874;2023-04-03T03:40:19;19.02;;;17.83;;
11531;SDS011;5822;51.000;5.874;2023-04-03T03:42:45;19.00;;;17.90;;
11531;SDS011;5822;51.000;5.874;2023-04-03T03:45:11;19.05;;;17.92;;
11531;SDS011;5822;51.000;5.874;2023-04-03T03:47:36;18.98;;;17.88;;
11531;SDS011;5822;51.000;5.874;2023-04-03T03:50:02;18.90;;;17.80;;
11531;SDS011;5822;51.000;5.874;2023-04-03T03:52:31;19.25;;;18.15;;
11531;SDS011;5822;51.000;5.874;2023-04-03T03:54:56;19.00;;;17.90;;
11531;SDS011;5822;51.000;5.874;2023-04-03T03:57:22;19.33;;;18.15;;
11531;SDS011;5822;51.000;5.874;2023-04-03T03:59:48;19.63;;;18.42;;
11531;SDS011;5822;51.000;5.874;2023-04-03T04:02:15;19.67;;;18.48;;
11531;SDS011;5822;51.000;5.874;2023-04-03T04:04:41;19.92;;;18.70;;
11531;SDS011;5822;51.000;5.874;2023-04-03T04:07:06;19.80;;;18.60;;
11531;SDS011;5822;51.000;5.874;2023-04-03T04:09:32;19.70;;;18.50;;
11531;SDS011;5822;51.000;5.874;2023-04-03T04:11:58;20.10;;;18.90;;
11531;SDS011;5822;51.000;5.874;2023-04-03T04:14:23;19.93;;;18.67;;
11531;SDS011;5822;51.000;5.874;2023-04-03T04:16:49;19.80;;;18.60;;
11531;SDS011;5822;51.000;5.874;2023-04-03T04:19:15;19.65;;;18.45;;
11531;SDS011;5822;51.000;5.874;2023-04-03T04:21:41;19.90;;;18.70;;
11531;SDS011;5822;51.000;5.874;2023-04-03T04:24:07;19.80;;;18.60;;
11531;SDS011;5822;51.000;5.874;2023-04-03T04:26:33;20.10;;;18.90;;
11531;SDS011;5822;51.000;5.874;2023-04-03T04:28:59;20.00;;;18.80;;
11531;SDS011;5822;51.000;5.874;2023-04-03T04:31:25;20.10;;;18.90;;
11531;SDS011;5822;51.000;5.874;2023-04-03T04:33:51;20.00;;;18.80;;
11531;SDS011;5822;51.000;5.874;2023-04-03T04:36:17;20.40;;;19.15;;
11531;SDS011;5822;51.000;5.874;2023-04-03T04:38:43;19.97;;;18.77;;
11531;SDS011;5822;51.000;5.874;2023-04-03T04:41:09;19.98;;;18.77;;
11531;SDS011;5822;51.000;5.874;2023-04-03T04:43:35;20.25;;;18.98;;
11531;SDS011;5822;51.000;5.874;2023-04-03T04:46:05;19.45;;;18.33;;
11531;SDS011;5822;51.000;5.874;2023-04-03T04:48:32;19.90;;;18.70;;
11531;SDS011;5822;51.000;5.874;2023-04-03T04:50:59;19.10;;;17.90;;
11531;SDS011;5822;51.000;5.874;2023-04-03T04:53:25;18.70;;;17.60;;
11531;SDS011;5822;51.000;5.874;2023-04-03T04:55:51;18.80;;;17.70;;
11531;SDS011;5822;51.000;5.874;2023-04-03T04:58:17;18.90;;;17.80;;
11531;SDS011;5822;51.000;5.874;2023-04-03T05:00:43;18.90;;;17.80;;
11531;SDS011;5822;51.000;5.874;2023-04-03T05:03:09;20.05;;;18.85;;
11531;SDS011;5822;51.000;5.874;2023-04-03T05:05:35;20.35;;;19.15;;
11531;SDS011;5822;51.000;5.874;2023-04-03T05:08:01;21.23;;;19.92;;
11531;SDS011;5822;51.000;5.874;2023-04-03T05:10:28;21.75;;;20.45;;
11531;SDS011;5822;51.000;5.874;2023-04-03T05:12:53;22.40;;;21.00;;
11531;SDS011;5822;51.000;5.874;2023-04-03T05:15:19;21.33;;;20.02;;
11531;SDS011;5822;51.000;5.874;2023-04-03T05:17:45;20.77;;;19.58;;
11531;SDS011;5822;51.000;5.874;2023-04-03T05:20:11;20.90;;;19.70;;
11531;SDS011;5822;51.000;5.874;2023-04-03T05:22:37;20.90;;;19.70;;
11531;SDS011;5822;51.000;5.874;2023-04-03T05:25:03;20.90;;;19.60;;
11531;SDS011;5822;51.000;5.874;2023-04-03T05:27:29;20.60;;;19.40;;
11531;SDS011;5822;51.000;5.874;2023-04-03T05:29:55;20.10;;;18.90;;
11531;SDS011;5822;51.000;5.874;2023-04-03T05:32:22;19.50;;;18.30;;
11531;SDS011;5822;51.000;5.874;2023-04-03T05:34:48;21.27;;;19.97;;
11531;SDS011;5822;51.000;5.874;2023-04-03T05:37:14;21.10;;;19.90;;
11531;SDS011;5822;51.000;5.874;2023-04-03T05:39:39;21.27;;;19.98;;
11531;SDS011;5822;51.000;5.874;2023-04-03T05:42:06;20.85;;;19.55;;
11531;SDS011;5822;51.000;5.874;2023-04-03T05:44:32;20.63;;;19.42;;
11531;SDS011;5822;51.000;5.874;2023-04-03T05:46:58;19.70;;;18.53;;
11531;SDS011;5822;51.000;5.874;2023-04-03T05:49:23;20.15;;;18.95;;
11531;SDS011;5822;51.000;5.874;2023-04-03T05:51:49;20.65;;;19.45;;
11531;SDS011;5822;51.000;5.874;2023-04-03T05:56:52;21.60;;;19.95;;
11531;SDS011;5822;51.000;5.874;2023-04-03T05:59:18;20.05;;;18.90;;
11531;SDS011;5822;51.000;5.874;2023-04-03T06:01:45;19.80;;;18.67;;
11531;SDS011;5822;51.000;5.874;2023-04-03T06:04:11;19.38;;;18.27;;
11531;SDS011;5822;51.000;5.874;2023-04-03T06:06:44;19.40;;;18.30;;
11531;SDS011;5822;51.000;5.874;2023-04-03T06:09:16;19.70;;;18.50;;
11531;SDS011;5822;51.000;5.874;2023-04-03T06:11:42;18.92;;;17.83;;
11531;SDS011;5822;51.000;5.874;2023-04-03T06:14:09;19.63;;;18.52;;
11531;SDS011;5822;51.000;5.874;2023-04-03T06:16:34;19.77;;;18.67;;
11531;SDS011;5822;51.000;5.874;2023-04-03T06:19:00;19.50;;;18.40;;
11531;SDS011;5822;51.000;5.874;2023-04-03T06:21:26;19.67;;;18.63;;
11531;SDS011;5822;51.000;5.874;2023-04-03T06:23:52;19.13;;;18.00;;
11531;SDS011;5822;51.000;5.874;2023-04-03T06:26:17;18.60;;;17.60;;
11531;SDS011;5822;51.000;5.874;2023-04-03T06:28:43;18.77;;;17.77;;
11531;SDS011;5822;51.000;5.874;2023-04-03T06:31:09;20.25;;;19.17;;
11531;SDS011;5822;51.000;5.874;2023-04-03T06:33:34;24.58;;;23.38;;
11531;SDS011;5822;51.000;5.874;2023-04-03T06:36:03;16.70;;;15.80;;
11531;SDS011;5822;51.000;5.874;2023-04-03T06:38:29;17.10;;;16.10;;
11531;SDS011;5822;51.000;5.874;2023-04-03T06:40:55;17.35;;;16.40;;
11531;SDS011;5822;51.000;5.874;2023-04-03T06:43:21;18.13;;;17.23;;
11531;SDS011;5822;51.000;5.874;2023-04-03T06:45:47;17.85;;;16.95;;
11531;SDS011;5822;51.000;5.874;2023-04-03T06:48:13;17.88;;;16.98;;
11531;SDS011;5822;51.000;5.874;2023-04-03T06:50:39;19.33;;;18.33;;
11531;SDS011;5822;51.000;5.874;2023-04-03T06:53:05;16.40;;;15.50;;
11531;SDS011;5822;51.000;5.874;2023-04-03T06:55:32;17.15;;;16.15;;
11531;SDS011;5822;51.000;5.874;2023-04-03T06:57:57;16.67;;;15.68;;
11531;SDS011;5822;51.000;5.874;2023-04-03T07:00:23;16.50;;;15.60;;
11531;SDS011;5822;51.000;5.874;2023-04-03T07:02:49;16.80;;;15.80;;
11531;SDS011;5822;51.000;5.874;2023-04-03T07:05:16;18.10;;;17.10;;
11531;SDS011;5822;51.000;5.874;2023-04-03T07:07:42;18.65;;;17.65;;
11531;SDS011;5822;51.000;5.874;2023-04-03T07:10:08;18.73;;;17.73;;
11531;SDS011;5822;51.000;5.874;2023-04-03T07:12:35;18.38;;;17.38;;
11531;SDS011;5822;51.000;5.874;2023-04-03T07:15:01;18.60;;;17.60;;
11531;SDS011;5822;51.000;5.874;2023-04-03T07:17:27;19.20;;;18.10;;
11531;SDS011;5822;51.000;5.874;2023-04-03T07:19:53;19.88;;;18.77;;
11531;SDS011;5822;51.000;5.874;2023-04-03T07:22:19;17.92;;;16.98;;
11531;SDS011;5822;51.000;5.874;2023-04-03T07:24:44;17.75;;;16.75;;
11531;SDS011;5822;51.000;5.874;2023-04-03T07:27:11;17.80;;;16.80;;
11531;SDS011;5822;51.000;5.874;2023-04-03T07:29:37;17.63;;;16.63;;
11531;SDS011;5822;51.000;5.874;2023-04-03T07:32:04;16.95;;;15.85;;
11531;SDS011;5822;51.000;5.874;2023-04-03T07:34:31;16.70;;;15.70;;
11531;SDS011;5822;51.000;5.874;2023-04-03T07:36:58;17.30;;;16.23;;
11531;SDS011;5822;51.000;5.874;2023-04-03T07:39:24;17.45;;;16.35;;
11531;SDS011;5822;51.000;5.874;2023-04-03T07:41:49;17.52;;;16.52;;
11531;SDS011;5822;51.000;5.874;2023-04-03T07:44:15;19.27;;;18.27;;
11531;SDS011;5822;51.000;5.874;2023-04-03T07:46:41;18.40;;;17.40;;
11531;SDS011;5822;51.000;5.874;2023-04-03T07:49:07;18.45;;;17.45;;
11531;SDS011;5822;51.000;5.874;2023-04-03T07:51:33;20.58;;;19.48;;
11531;SDS011;5822;51.000;5.874;2023-04-03T07:53:59;19.17;;;18.17;;
11531;SDS011;5822;51.000;5.874;2023-04-03T07:56:25;18.95;;;17.95;;
11531;SDS011;5822;51.000;5.874;2023-04-03T07:58:50;19.10;;;18.10;;
11531;SDS011;5822;51.000;5.874;2023-04-03T08:01:16;20.00;;;18.90;;
11531;SDS011;5822;51.000;5.874;2023-04-03T08:03:42;19.23;;;18.13;;
11531;SDS011;5822;51.000;5.874;2023-04-03T08:06:08;18.87;;;17.77;;
11531;SDS011;5822;51.000;5.874;2023-04-03T08:08:34;18.45;;;17.45;;
11531;SDS011;5822;51.000;5.874;2023-04-03T08:11:00;18.50;;;17.50;;
11531;SDS011;5822;51.000;5.874;2023-04-03T08:13:27;17.60;;;16.50;;
11531;SDS011;5822;51.000;5.874;2023-04-03T08:15:54;17.27;;;16.27;;
11531;SDS011;5822;51.000;5.874;2023-04-03T08:18:22;17.50;;;16.50;;
11531;SDS011;5822;51.000;5.874;2023-04-03T08:20:49;17.60;;;16.60;;
11531;SDS011;5822;51.000;5.874;2023-04-03T08:23:16;17.45;;;16.50;;
11531;SDS011;5822;51.000;5.874;2023-04-03T08:25:43;17.98;;;16.98;;
11531;SDS011;5822;51.000;5.874;2023-04-03T08:28:09;18.92;;;17.90;;
11531;SDS011;5822;51.000;5.874;2023-04-03T08:30:38;18.15;;;17.15;;
11531;SDS011;5822;51.000;5.874;2023-04-03T08:33:06;16.80;;;15.90;;
11531;SDS011;5822;51.000;5.874;2023-04-03T08:35:32;17.70;;;16.70;;
11531;SDS011;5822;51.000;5.874;2023-04-03T08:37:58;17.70;;;16.80;;
11531;SDS011;5822;51.000;5.874;2023-04-03T08:40:23;17.67;;;16.77;;
11531;SDS011;5822;51.000;5.874;2023-04-03T08:45:52;18.10;;;17.10;;
11531;SDS011;5822;51.000;5.874;2023-04-03T08:48:26;18.58;;;17.58;;
11531;SDS011;5822;51.000;5.874;2023-04-03T08:51:00;17.70;;;16.70;;
11531;SDS011;5822;51.000;5.874;2023-04-03T08:53:31;18.30;;;17.20;;
11531;SDS011;5822;51.000;5.874;2023-04-03T08:56:05;17.63;;;16.70;;
11531;SDS011;5822;51.000;5.874;2023-04-03T09:01:42;17.00;;;16.10;;
11531;SDS011;5822;51.000;5.874;2023-04-03T09:04:10;17.63;;;16.63;;
11531;SDS011;5822;51.000;5.874;2023-04-03T09:06:38;17.13;;;16.23;;
11531;SDS011;5822;51.000;5.874;2023-04-03T09:09:13;17.30;;;16.40;;
11531;SDS011;5822;51.000;5.874;2023-04-03T09:17:32;18.02;;;17.02;;
11531;SDS011;5822;51.000;5.874;2023-04-03T09:22:56;16.50;;;15.50;;
11531;SDS011;5822;51.000;5.874;2023-04-03T09:25:23;16.30;;;15.40;;
11531;SDS011;5822;51.000;5.874;2023-04-03T09:27:57;16.20;;;15.30;;
11531;SDS011;5822;51.000;5.874;2023-04-03T09:30:25;16.35;;;15.45;;
11531;SDS011;5822;51.000;5.874;2023-04-03T09:32:52;17.07;;;16.07;;
11531;SDS011;5822;51.000;5.874;2023-04-03T09:37:49;18.67;;;17.67;;
11531;SDS011;5822;51.000;5.874;2023-04-03T09:42:54;18.60;;;17.60;;
11531;SDS011;5822;51.000;5.874;2023-04-03T09:45:24;17.90;;;16.90;;
11531;SDS011;5822;51.000;5.874;2023-04-03T09:53:49;18.30;;;17.30;;
11531;SDS011;5822;51.000;5.874;2023-04-03T09:58:52;17.88;;;16.88;;
11531;SDS011;5822;51.000;5.874;2023-04-03T10:01:35;17.50;;;16.50;;
11531;SDS011;5822;51.000;5.874;2023-04-03T10:06:32;16.40;;;15.50;;
11531;SDS011;5822;51.000;5.874;2023-04-03T10:09:01;17.70;;;16.70;;
11531;SDS011;5822;51.000;5.874;2023-04-03T10:11:30;17.20;;;16.30;;
11531;SDS011;5822;51.000;5.874;2023-04-03T10:13:57;17.90;;;16.90;;
11531;SDS011;5822;51.000;5.874;2023-04-03T10:16:34;17.40;;;16.40;;
11531;SDS011;5822;51.000;5.874;2023-04-03T10:21:59;18.58;;;17.48;;
11531;SDS011;5822;51.000;5.874;2023-04-03T10:24:36;18.42;;;17.33;;
11531;SDS011;5822;51.000;5.874;2023-04-03T10:27:26;18.08;;;16.98;;
11531;SDS011;5822;51.000;5.874;2023-04-03T10:30:21;18.38;;;17.27;;
11531;SDS011;5822;51.000;5.874;2023-04-03T10:35:23;18.40;;;17.30;;
11531;SDS011;5822;51.000;5.874;2023-04-03T10:43:31;17.80;;;16.80;;
11531;SDS011;5822;51.000;5.874;2023-04-03T10:46:07;17.70;;;16.70;;
11531;SDS011;5822;51.000;5.874;2023-04-03T10:49:00;18.00;;;17.00;;
11531;SDS011;5822;51.000;5.874;2023-04-03T10:51:57;17.45;;;16.45;;
11531;SDS011;5822;51.000;5.874;2023-04-03T10:54:41;17.92;;;16.92;;
11531;SDS011;5822;51.000;5.874;2023-04-03T10:57:17;17.23;;;16.23;;
11531;SDS011;5822;51.000;5.874;2023-04-03T10:59:55;18.15;;;17.05;;
11531;SDS011;5822;51.000;5.874;2023-04-03T11:04:59;17.60;;;16.60;;
11531;SDS011;5822;51.000;5.874;2023-04-03T11:07:32;17.02;;;16.13;;
11531;SDS011;5822;51.000;5.874;2023-04-03T11:10:09;17.70;;;16.70;;
11531;SDS011;5822;51.000;5.874;2023-04-03T11:12:44;17.65;;;16.55;;
11531;SDS011;5822;51.000;5.874;2023-04-03T11:15:15;18.00;;;16.90;;
11531;SDS011;5822;51.000;5.874;2023-04-03T11:17:54;18.02;;;16.92;;
11531;SDS011;5822;51.000;5.874;2023-04-03T11:20:26;18.00;;;17.00;;
11531;SDS011;5822;51.000;5.874;2023-04-03T11:25:44;17.30;;;16.30;;
11531;SDS011;5822;51.000;5.874;2023-04-03T11:28:17;17.40;;;16.40;;
11531;SDS011;5822;51.000;5.874;2023-04-03T11:30:55;17.50;;;16.50;;
11531;SDS011;5822;51.000;5.874;2023-04-03T11:36:43;17.67;;;16.67;;
11531;SDS011;5822;51.000;5.874;2023-04-03T11:39:33;17.17;;;16.17;;
11531;SDS011;5822;51.000;5.874;2023-04-03T11:43:04;17.45;;;16.45;;
11531;SDS011;5822;51.000;5.874;2023-04-03T11:47:51;16.70;;;15.80;;
11531;SDS011;5822;51.000;5.874;2023-04-03T11:50:30;16.80;;;15.80;;
11531;SDS011;5822;51.000;5.874;2023-04-03T11:53:00;16.80;;;15.90;;
11531;SDS011;5822;51.000;5.874;2023-04-03T12:05:53;16.30;;;15.40;;
11531;SDS011;5822;51.000;5.874;2023-04-03T12:13:41;16.10;;;15.20;;
11531;SDS011;5822;51.000;5.874;2023-04-03T12:16:32;15.80;;;14.90;;
11531;SDS011;5822;51.000;5.874;2023-04-03T12:43:34;17.10;;;16.10;;
11531;SDS011;5822;51.000;5.874;2023-04-03T12:46:22;16.55;;;15.65;;
11531;SDS011;5822;51.000;5.874;2023-04-03T12:48:50;17.52;;;16.45;;
11531;SDS011;5822;51.000;5.874;2023-04-03T12:57:13;16.50;;;15.60;;
11531;SDS011;5822;51.000;5.874;2023-04-03T12:59:46;17.20;;;16.20;;
11531;SDS011;5822;51.000;5.874;2023-04-03T13:02:17;16.88;;;15.98;;
11531;SDS011;5822;51.000;5.874;2023-04-03T13:04:48;17.00;;;16.00;;
11531;SDS011;5822;51.000;5.874;2023-04-03T13:07:34;17.35;;;16.35;;
11531;SDS011;5822;51.000;5.874;2023-04-03T13:10:13;17.67;;;16.67;;
11531;SDS011;5822;51.000;5.874;2023-04-03T13:15:13;17.05;;;16.05;;
11531;SDS011;5822;51.000;5.874;2023-04-03T13:17:43;16.80;;;15.90;;
11531;SDS011;5822;51.000;5.874;2023-04-03T13:20:10;16.38;;;15.48;;
11531;SDS011;5822;51.000;5.874;2023-04-03T13:22:38;16.40;;;15.50;;
11531;SDS011;5822;51.000;5.874;2023-04-03T13:25:13;16.20;;;15.30;;
11531;SDS011;5822;51.000;5.874;2023-04-03T13:27:41;16.35;;;15.43;;
11531;SDS011;5822;51.000;5.874;2023-04-03T13:30:19;16.30;;;15.40;;
11531;SDS011;5822;51.000;5.874;2023-04-03T13:32:48;16.73;;;15.77;;
11531;SDS011;5822;51.000;5.874;2023-04-03T13:35:27;16.45;;;15.55;;
11531;SDS011;5822;51.000;5.874;2023-04-03T13:38:00;16.80;;;15.90;;
11531;SDS011;5822;51.000;5.874;2023-04-03T13:40:54;17.50;;;16.50;;
11531;SDS011;5822;51.000;5.874;2023-04-03T13:43:25;16.80;;;15.83;;
11531;SDS011;5822;51.000;5.874;2023-04-03T13:46:04;17.17;;;16.17;;
11531;SDS011;5822;51.000;5.874;2023-04-03T13:48:48;17.10;;;16.10;;
11531;SDS011;5822;51.000;5.874;2023-04-03T13:51:17;17.30;;;16.30;;
11531;SDS011;5822;51.000;5.874;2023-04-03T13:58:55;17.40;;;16.40;;
11531;SDS011;5822;51.000;5.874;2023-04-03T14:01:24;17.40;;;16.40;;
11531;SDS011;5822;51.000;5.874;2023-04-03T14:03:54;17.10;;;16.10;;
11531;SDS011;5822;51.000;5.874;2023-04-03T14:06:21;17.00;;;16.00;;
11531;SDS011;5822;51.000;5.874;2023-04-03T14:08:48;16.83;;;15.90;;
11531;SDS011;5822;51.000;5.874;2023-04-03T14:11:16;16.85;;;15.88;;
11531;SDS011;5822;51.000;5.874;2023-04-03T14:14:02;16.88;;;15.88;;
11531;SDS011;5822;51.000;5.874;2023-04-03T14:16:37;16.60;;;15.70;;
11531;SDS011;5822;51.000;5.874;2023-04-03T14:19:05;16.80;;;15.90;;
11531;SDS011;5822;51.000;5.874;2023-04-03T14:21:32;16.38;;;15.48;;
11531;SDS011;5822;51.000;5.874;2023-04-03T14:23:59;16.00;;;15.10;;
11531;SDS011;5822;51.000;5.874;2023-04-03T14:26:24;16.33;;;15.43;;
11531;SDS011;5822;51.000;5.874;2023-04-03T14:28:52;16.00;;;15.10;;
11531;SDS011;5822;51.000;5.874;2023-04-03T14:31:20;16.30;;;15.40;;
11531;SDS011;5822;51.000;5.874;2023-04-03T14:33:48;17.10;;;16.10;;
11531;SDS011;5822;51.000;5.874;2023-04-03T14:36:16;17.10;;;16.10;;
11531;SDS011;5822;51.000;5.874;2023-04-03T14:38:47;16.90;;;15.90;;
11531;SDS011;5822;51.000;5.874;2023-04-03T14:41:15;16.45;;;15.55;;
11531;SDS011;5822;51.000;5.874;2023-04-03T14:43:43;16.35;;;15.45;;
11531;SDS011;5822;51.000;5.874;2023-04-03T14:46:32;16.65;;;15.75;;
11531;SDS011;5822;51.000;5.874;2023-04-03T14:49:01;16.60;;;15.70;;
11531;SDS011;5822;51.000;5.874;2023-04-03T14:51:28;16.10;;;15.20;;
11531;SDS011;5822;51.000;5.874;2023-04-03T14:53:53;16.10;;;15.20;;
11531;SDS011;5822;51.000;5.874;2023-04-03T14:56:27;16.23;;;15.32;;
11531;SDS011;5822;51.000;5.874;2023-04-03T14:58:58;16.45;;;15.45;;
11531;SDS011;5822;51.000;5.874;2023-04-03T15:01:25;16.20;;;15.30;;
11531;SDS011;5822;51.000;5.874;2023-04-03T15:03:52;16.30;;;15.40;;
11531;SDS011;5822;51.000;5.874;2023-04-03T15:06:18;16.30;;;15.40;;
11531;SDS011;5822;51.000;5.874;2023-04-03T15:08:45;16.77;;;15.77;;
11531;SDS011;5822;51.000;5.874;2023-04-03T15:11:12;16.90;;;15.90;;
11531;SDS011;5822;51.000;5.874;2023-04-03T15:13:39;17.17;;;16.17;;
11531;SDS011;5822;51.000;5.874;2023-04-03T15:16:06;17.08;;;16.08;;
11531;SDS011;5822;51.000;5.874;2023-04-03T15:18:44;17.02;;;16.02;;
11531;SDS011;5822;51.000;5.874;2023-04-03T15:21:10;17.50;;;16.50;;
11531;SDS011;5822;51.000;5.874;2023-04-03T15:23:37;17.00;;;16.00;;
11531;SDS011;5822;51.000;5.874;2023-04-03T15:26:02;17.27;;;16.27;;
11531;SDS011;5822;51.000;5.874;2023-04-03T15:28:33;17.20;;;16.20;;
11531;SDS011;5822;51.000;5.874;2023-04-03T15:31:02;17.30;;;16.30;;
11531;SDS011;5822;51.000;5.874;2023-04-03T15:33:29;17.52;;;16.52;;
11531;SDS011;5822;51.000;5.874;2023-04-03T15:35:55;17.70;;;16.70;;
11531;SDS011;5822;51.000;5.874;2023-04-03T15:38:21;17.70;;;16.70;;
11531;SDS011;5822;51.000;5.874;2023-04-03T15:40:47;17.70;;;16.70;;
11531;SDS011;5822;51.000;5.874;2023-04-03T15:43:13;17.80;;;16.80;;
11531;SDS011;5822;51.000;5.874;2023-04-03T15:45:39;18.20;;;17.10;;
11531;SDS011;5822;51.000;5.874;2023-04-03T15:48:06;17.95;;;16.95;;
11531;SDS011;5822;51.000;5.874;2023-04-03T15:50:33;17.80;;;16.80;;
11531;SDS011;5822;51.000;5.874;2023-04-03T15:52:59;18.40;;;17.30;;
11531;SDS011;5822;51.000;5.874;2023-04-03T15:55:27;17.70;;;16.70;;
11531;SDS011;5822;51.000;5.874;2023-04-03T15:57:54;17.92;;;16.92;;
11531;SDS011;5822;51.000;5.874;2023-04-03T16:00:21;17.90;;;16.80;;
11531;SDS011;5822;51.000;5.874;2023-04-03T16:02:48;17.98;;;16.88;;
11531;SDS011;5822;51.000;5.874;2023-04-03T16:05:19;17.88;;;16.77;;
11531;SDS011;5822;51.000;5.874;2023-04-03T16:07:45;17.80;;;16.80;;
11531;SDS011;5822;51.000;5.874;2023-04-03T16:10:12;17.40;;;16.30;;
11531;SDS011;5822;51.000;5.874;2023-04-03T16:12:40;17.30;;;16.30;;
11531;SDS011;5822;51.000;5.874;2023-04-03T16:15:06;17.75;;;16.65;;
11531;SDS011;5822;51.000;5.874;2023-04-03T16:17:33;17.30;;;16.30;;
11531;SDS011;5822;51.000;5.874;2023-04-03T16:20:00;17.67;;;16.67;;
11531;SDS011;5822;51.000;5.874;2023-04-03T16:22:26;17.48;;;16.48;;
11531;SDS011;5822;51.000;5.874;2023-04-03T16:24:53;17.50;;;16.50;;
11531;SDS011;5822;51.000;5.874;2023-04-03T16:27:19;18.00;;;17.00;;
11531;SDS011;5822;51.000;5.874;2023-04-03T16:29:45;17.67;;;16.67;;
11531;SDS011;5822;51.000;5.874;2023-04-03T16:32:11;17.40;;;16.40;;
11531;SDS011;5822;51.000;5.874;2023-04-03T16:34:37;17.33;;;16.33;;
11531;SDS011;5822;51.000;5.874;2023-04-03T16:37:05;16.90;;;16.00;;